Terminal Aerodrome Forecast
Issued by NWS

Current Version | Previous Version | Text Only | Print | Product List | Glossary On
Versions: 1 2 3 4 5 6 7 8 9 10 11 12 13 14 15
000
FTUS46 KPDT 051143
TAFALW
TAF
KALW 051143Z 0512/0612 21010KT P6SM FEW060 SCT100
     FM052000 23008KT P6SM SCT050 BKN080
     FM052200 24010KT P6SM VCSH SCT030 BKN050
     FM060300 26008KT 5SM -SHSN BKN015 BKN035=

USA.gov is the U.S. government's official web portal to all federal, state and local government web resources and services.